sensor_id;sensor_type;location;lat;lon;timestamp;P1;durP1;ratioP1;P2;durP2;ratioP2
12141;SDS011;6134;59.284;18.022;2023-07-24T00:00:47;2.95;;;2.22;;
12141;SDS011;6134;59.284;18.022;2023-07-24T00:03:16;2.72;;;2.38;;
12141;SDS011;6134;59.284;18.022;2023-07-24T00:05:44;2.63;;;2.10;;
12141;SDS011;6134;59.284;18.022;2023-07-24T00:08:13;2.92;;;1.90;;
12141;SDS011;6134;59.284;18.022;2023-07-24T00:10:42;2.25;;;2.00;;
12141;SDS011;6134;59.284;18.022;2023-07-24T00:13:11;3.35;;;2.05;;
12141;SDS011;6134;59.284;18.022;2023-07-24T00:15:40;1.85;;;1.48;;
12141;SDS011;6134;59.284;18.022;2023-07-24T00:18:09;3.42;;;2.00;;
12141;SDS011;6134;59.284;18.022;2023-07-24T00:20:37;3.20;;;2.13;;
12141;SDS011;6134;59.284;18.022;2023-07-24T00:23:06;2.63;;;1.70;;
12141;SDS011;6134;59.284;18.022;2023-07-24T00:25:35;2.17;;;1.83;;
12141;SDS011;6134;59.284;18.022;2023-07-24T00:28:05;2.35;;;1.83;;
12141;SDS011;6134;59.284;18.022;2023-07-24T00:30:34;2.45;;;2.00;;
12141;SDS011;6134;59.284;18.022;2023-07-24T00:33:02;2.38;;;2.17;;
12141;SDS011;6134;59.284;18.022;2023-07-24T00:35:31;3.97;;;1.65;;
12141;SDS011;6134;59.284;18.022;2023-07-24T00:38:00;3.20;;;2.17;;
12141;SDS011;6134;59.284;18.022;2023-07-24T00:40:29;3.67;;;2.00;;
12141;SDS011;6134;59.284;18.022;2023-07-24T00:42:58;2.15;;;1.85;;
12141;SDS011;6134;59.284;18.022;2023-07-24T00:45:28;2.35;;;2.13;;
12141;SDS011;6134;59.284;18.022;2023-07-24T00:47:58;2.97;;;2.30;;
12141;SDS011;6134;59.284;18.022;2023-07-24T00:50:27;3.20;;;2.38;;
12141;SDS011;6134;59.284;18.022;2023-07-24T00:52:58;2.55;;;2.25;;
12141;SDS011;6134;59.284;18.022;2023-07-24T00:55:27;5.30;;;2.50;;
12141;SDS011;6134;59.284;18.022;2023-07-24T00:57:57;4.38;;;2.30;;
12141;SDS011;6134;59.284;18.022;2023-07-24T01:00:26;2.45;;;2.10;;
12141;SDS011;6134;59.284;18.022;2023-07-24T01:02:56;4.80;;;2.13;;
12141;SDS011;6134;59.284;18.022;2023-07-24T01:05:27;2.78;;;2.20;;
12141;SDS011;6134;59.284;18.022;2023-07-24T01:07:56;2.63;;;2.10;;
12141;SDS011;6134;59.284;18.022;2023-07-24T01:10:25;2.17;;;1.88;;
12141;SDS011;6134;59.284;18.022;2023-07-24T01:12:56;3.00;;;2.17;;
12141;SDS011;6134;59.284;18.022;2023-07-24T01:15:29;2.50;;;2.30;;
12141;SDS011;6134;59.284;18.022;2023-07-24T01:18:01;3.35;;;2.28;;
12141;SDS011;6134;59.284;18.022;2023-07-24T01:20:31;3.80;;;2.35;;
12141;SDS011;6134;59.284;18.022;2023-07-24T01:23:13;4.05;;;2.50;;
12141;SDS011;6134;59.284;18.022;2023-07-24T01:25:50;3.80;;;2.25;;
12141;SDS011;6134;59.284;18.022;2023-07-24T01:28:21;3.70;;;2.67;;
12141;SDS011;6134;59.284;18.022;2023-07-24T01:30:50;3.50;;;2.60;;
12141;SDS011;6134;59.284;18.022;2023-07-24T01:33:19;3.55;;;2.10;;
12141;SDS011;6134;59.284;18.022;2023-07-24T01:35:48;3.65;;;2.10;;
12141;SDS011;6134;59.284;18.022;2023-07-24T01:38:18;3.33;;;2.03;;
12141;SDS011;6134;59.284;18.022;2023-07-24T01:40:47;3.78;;;2.60;;
12141;SDS011;6134;59.284;18.022;2023-07-24T01:43:17;4.35;;;2.88;;
12141;SDS011;6134;59.284;18.022;2023-07-24T01:45:46;4.85;;;2.83;;
12141;SDS011;6134;59.284;18.022;2023-07-24T01:48:15;3.03;;;2.72;;
12141;SDS011;6134;59.284;18.022;2023-07-24T01:50:43;4.10;;;2.60;;
12141;SDS011;6134;59.284;18.022;2023-07-24T01:53:12;4.05;;;2.30;;
12141;SDS011;6134;59.284;18.022;2023-07-24T01:55:41;4.35;;;2.50;;
12141;SDS011;6134;59.284;18.022;2023-07-24T01:58:10;4.18;;;2.67;;
12141;SDS011;6134;59.284;18.022;2023-07-24T02:00:40;3.13;;;2.45;;
12141;SDS011;6134;59.284;18.022;2023-07-24T02:03:09;6.38;;;2.50;;
12141;SDS011;6134;59.284;18.022;2023-07-24T02:05:38;3.25;;;2.70;;
12141;SDS011;6134;59.284;18.022;2023-07-24T02:08:07;4.47;;;2.42;;
12141;SDS011;6134;59.284;18.022;2023-07-24T02:10:36;6.00;;;2.70;;
12141;SDS011;6134;59.284;18.022;2023-07-24T02:13:06;5.57;;;2.83;;
12141;SDS011;6134;59.284;18.022;2023-07-24T02:15:36;4.28;;;2.80;;
12141;SDS011;6134;59.284;18.022;2023-07-24T02:18:07;2.75;;;2.42;;
12141;SDS011;6134;59.284;18.022;2023-07-24T02:20:38;4.75;;;2.70;;
12141;SDS011;6134;59.284;18.022;2023-07-24T02:23:07;3.55;;;2.80;;
12141;SDS011;6134;59.284;18.022;2023-07-24T02:25:35;3.75;;;2.70;;
12141;SDS011;6134;59.284;18.022;2023-07-24T02:28:04;5.35;;;2.78;;
12141;SDS011;6134;59.284;18.022;2023-07-24T02:30:33;5.50;;;3.00;;
12141;SDS011;6134;59.284;18.022;2023-07-24T02:33:05;4.75;;;2.85;;
12141;SDS011;6134;59.284;18.022;2023-07-24T02:35:39;4.88;;;2.65;;
12141;SDS011;6134;59.284;18.022;2023-07-24T02:38:08;6.03;;;3.10;;
12141;SDS011;6134;59.284;18.022;2023-07-24T02:40:40;5.65;;;3.00;;
12141;SDS011;6134;59.284;18.022;2023-07-24T02:43:08;4.45;;;2.80;;
12141;SDS011;6134;59.284;18.022;2023-07-24T02:45:38;3.90;;;3.17;;
12141;SDS011;6134;59.284;18.022;2023-07-24T02:48:07;6.32;;;3.40;;
12141;SDS011;6134;59.284;18.022;2023-07-24T02:50:36;2.90;;;2.60;;
12141;SDS011;6134;59.284;18.022;2023-07-24T02:53:06;5.60;;;2.95;;
12141;SDS011;6134;59.284;18.022;2023-07-24T02:55:34;5.63;;;2.72;;
12141;SDS011;6134;59.284;18.022;2023-07-24T02:58:03;3.50;;;2.63;;
12141;SDS011;6134;59.284;18.022;2023-07-24T03:00:32;3.72;;;2.97;;
12141;SDS011;6134;59.284;18.022;2023-07-24T03:03:01;3.30;;;2.45;;
12141;SDS011;6134;59.284;18.022;2023-07-24T03:05:29;4.10;;;2.80;;
12141;SDS011;6134;59.284;18.022;2023-07-24T03:07:58;2.92;;;2.63;;
12141;SDS011;6134;59.284;18.022;2023-07-24T03:10:30;4.05;;;2.50;;
12141;SDS011;6134;59.284;18.022;2023-07-24T03:12:59;4.03;;;2.97;;
12141;SDS011;6134;59.284;18.022;2023-07-24T03:15:28;3.38;;;3.00;;
12141;SDS011;6134;59.284;18.022;2023-07-24T03:17:57;4.60;;;2.90;;
12141;SDS011;6134;59.284;18.022;2023-07-24T03:20:26;5.65;;;3.00;;
12141;SDS011;6134;59.284;18.022;2023-07-24T03:22:55;4.95;;;2.88;;
12141;SDS011;6134;59.284;18.022;2023-07-24T03:25:24;5.70;;;2.97;;
12141;SDS011;6134;59.284;18.022;2023-07-24T03:27:54;2.92;;;2.58;;
12141;SDS011;6134;59.284;18.022;2023-07-24T03:30:25;3.97;;;3.28;;
12141;SDS011;6134;59.284;18.022;2023-07-24T03:32:54;2.85;;;2.40;;
12141;SDS011;6134;59.284;18.022;2023-07-24T03:35:22;6.68;;;2.90;;
12141;SDS011;6134;59.284;18.022;2023-07-24T03:37:51;5.03;;;3.03;;
12141;SDS011;6134;59.284;18.022;2023-07-24T03:40:20;5.18;;;3.13;;
12141;SDS011;6134;59.284;18.022;2023-07-24T03:42:49;4.93;;;2.78;;
12141;SDS011;6134;59.284;18.022;2023-07-24T03:45:19;3.70;;;3.00;;
12141;SDS011;6134;59.284;18.022;2023-07-24T03:47:48;4.68;;;2.70;;
12141;SDS011;6134;59.284;18.022;2023-07-24T03:50:16;3.55;;;2.90;;
12141;SDS011;6134;59.284;18.022;2023-07-24T03:52:45;3.95;;;2.90;;
12141;SDS011;6134;59.284;18.022;2023-07-24T03:55:14;2.95;;;2.65;;
12141;SDS011;6134;59.284;18.022;2023-07-24T03:57:43;3.30;;;2.85;;
12141;SDS011;6134;59.284;18.022;2023-07-24T04:00:12;3.42;;;3.13;;
12141;SDS011;6134;59.284;18.022;2023-07-24T04:02:42;4.20;;;2.80;;
12141;SDS011;6134;59.284;18.022;2023-07-24T04:05:11;6.93;;;3.35;;
12141;SDS011;6134;59.284;18.022;2023-07-24T04:07:40;5.40;;;3.00;;
12141;SDS011;6134;59.284;18.022;2023-07-24T04:10:08;4.47;;;3.00;;
12141;SDS011;6134;59.284;18.022;2023-07-24T04:12:37;4.60;;;3.53;;
12141;SDS011;6134;59.284;18.022;2023-07-24T04:15:06;4.47;;;3.33;;
12141;SDS011;6134;59.284;18.022;2023-07-24T04:17:35;3.88;;;2.85;;
12141;SDS011;6134;59.284;18.022;2023-07-24T04:20:07;6.68;;;3.00;;
12141;SDS011;6134;59.284;18.022;2023-07-24T04:22:36;4.20;;;3.25;;
12141;SDS011;6134;59.284;18.022;2023-07-24T04:25:05;4.70;;;3.40;;
12141;SDS011;6134;59.284;18.022;2023-07-24T04:27:34;5.07;;;3.15;;
12141;SDS011;6134;59.284;18.022;2023-07-24T04:30:03;8.45;;;3.80;;
12141;SDS011;6134;59.284;18.022;2023-07-24T04:32:31;4.90;;;3.67;;
12141;SDS011;6134;59.284;18.022;2023-07-24T04:35:00;7.35;;;4.07;;
12141;SDS011;6134;59.284;18.022;2023-07-24T04:37:31;6.13;;;4.35;;
12141;SDS011;6134;59.284;18.022;2023-07-24T04:39:59;6.75;;;4.10;;
12141;SDS011;6134;59.284;18.022;2023-07-24T04:42:29;6.68;;;4.30;;
12141;SDS011;6134;59.284;18.022;2023-07-24T04:44:57;10.00;;;5.13;;
12141;SDS011;6134;59.284;18.022;2023-07-24T04:47:26;10.73;;;5.10;;
12141;SDS011;6134;59.284;18.022;2023-07-24T04:49:55;7.00;;;4.75;;
12141;SDS011;6134;59.284;18.022;2023-07-24T04:52:24;7.70;;;5.25;;
12141;SDS011;6134;59.284;18.022;2023-07-24T04:54:54;7.75;;;4.72;;
12141;SDS011;6134;59.284;18.022;2023-07-24T04:57:22;9.23;;;5.90;;
12141;SDS011;6134;59.284;18.022;2023-07-24T04:59:52;7.53;;;5.47;;
12141;SDS011;6134;59.284;18.022;2023-07-24T05:02:20;8.38;;;4.97;;
12141;SDS011;6134;59.284;18.022;2023-07-24T05:04:49;11.48;;;5.65;;
12141;SDS011;6134;59.284;18.022;2023-07-24T05:07:18;6.93;;;4.60;;
12141;SDS011;6134;59.284;18.022;2023-07-24T05:09:47;5.90;;;4.57;;
12141;SDS011;6134;59.284;18.022;2023-07-24T05:12:17;8.45;;;4.68;;
12141;SDS011;6134;59.284;18.022;2023-07-24T05:14:45;6.10;;;3.97;;
12141;SDS011;6134;59.284;18.022;2023-07-24T05:17:14;5.15;;;3.58;;
12141;SDS011;6134;59.284;18.022;2023-07-24T05:19:43;5.90;;;3.88;;
12141;SDS011;6134;59.284;18.022;2023-07-24T05:22:12;6.05;;;3.20;;
12141;SDS011;6134;59.284;18.022;2023-07-24T05:24:41;5.03;;;3.25;;
12141;SDS011;6134;59.284;18.022;2023-07-24T05:27:09;4.68;;;3.00;;
12141;SDS011;6134;59.284;18.022;2023-07-24T05:29:40;5.43;;;2.83;;
12141;SDS011;6134;59.284;18.022;2023-07-24T05:32:09;6.05;;;3.05;;
12141;SDS011;6134;59.284;18.022;2023-07-24T05:34:38;3.25;;;2.95;;
12141;SDS011;6134;59.284;18.022;2023-07-24T05:37:11;4.15;;;2.85;;
12141;SDS011;6134;59.284;18.022;2023-07-24T05:39:40;4.78;;;3.08;;
12141;SDS011;6134;59.284;18.022;2023-07-24T05:42:09;3.83;;;2.40;;
12141;SDS011;6134;59.284;18.022;2023-07-24T05:44:38;3.35;;;2.50;;
12141;SDS011;6134;59.284;18.022;2023-07-24T05:47:08;3.28;;;2.70;;
12141;SDS011;6134;59.284;18.022;2023-07-24T05:49:37;6.70;;;3.25;;
12141;SDS011;6134;59.284;18.022;2023-07-24T05:52:08;4.55;;;2.80;;
12141;SDS011;6134;59.284;18.022;2023-07-24T05:54:37;3.42;;;2.88;;
12141;SDS011;6134;59.284;18.022;2023-07-24T05:57:06;3.17;;;2.70;;
12141;SDS011;6134;59.284;18.022;2023-07-24T05:59:35;7.43;;;3.08;;
12141;SDS011;6134;59.284;18.022;2023-07-24T06:02:04;2.70;;;2.20;;
12141;SDS011;6134;59.284;18.022;2023-07-24T06:04:35;5.55;;;2.97;;
12141;SDS011;6134;59.284;18.022;2023-07-24T06:07:04;3.65;;;2.47;;
12141;SDS011;6134;59.284;18.022;2023-07-24T06:09:33;3.55;;;2.58;;
12141;SDS011;6134;59.284;18.022;2023-07-24T06:12:02;3.05;;;2.53;;
12141;SDS011;6134;59.284;18.022;2023-07-24T06:14:31;3.05;;;2.30;;
12141;SDS011;6134;59.284;18.022;2023-07-24T06:17:00;2.17;;;1.98;;
12141;SDS011;6134;59.284;18.022;2023-07-24T06:19:28;3.78;;;2.17;;
12141;SDS011;6134;59.284;18.022;2023-07-24T06:21:58;3.53;;;2.40;;
12141;SDS011;6134;59.284;18.022;2023-07-24T06:24:27;2.78;;;2.13;;
12141;SDS011;6134;59.284;18.022;2023-07-24T06:26:56;2.67;;;1.73;;
12141;SDS011;6134;59.284;18.022;2023-07-24T06:29:25;2.33;;;2.10;;
12141;SDS011;6134;59.284;18.022;2023-07-24T06:31:54;3.47;;;1.83;;
12141;SDS011;6134;59.284;18.022;2023-07-24T06:34:23;2.15;;;1.95;;
12141;SDS011;6134;59.284;18.022;2023-07-24T06:36:51;3.15;;;1.85;;
12141;SDS011;6134;59.284;18.022;2023-07-24T06:39:28;2.60;;;1.52;;
12141;SDS011;6134;59.284;18.022;2023-07-24T06:41:57;2.03;;;1.73;;
12141;SDS011;6134;59.284;18.022;2023-07-24T06:44:26;2.60;;;1.80;;
12141;SDS011;6134;59.284;18.022;2023-07-24T06:46:55;3.63;;;1.77;;
12141;SDS011;6134;59.284;18.022;2023-07-24T06:49:24;2.55;;;1.48;;
12141;SDS011;6134;59.284;18.022;2023-07-24T06:51:53;1.65;;;1.45;;
12141;SDS011;6134;59.284;18.022;2023-07-24T06:54:21;2.42;;;1.55;;
12141;SDS011;6134;59.284;18.022;2023-07-24T06:56:52;2.03;;;1.52;;
12141;SDS011;6134;59.284;18.022;2023-07-24T06:59:21;1.52;;;1.30;;
12141;SDS011;6134;59.284;18.022;2023-07-24T07:01:49;2.58;;;1.50;;
12141;SDS011;6134;59.284;18.022;2023-07-24T07:04:18;1.55;;;1.40;;
12141;SDS011;6134;59.284;18.022;2023-07-24T07:06:47;1.88;;;1.20;;
12141;SDS011;6134;59.284;18.022;2023-07-24T07:09:16;2.75;;;1.40;;
12141;SDS011;6134;59.284;18.022;2023-07-24T07:11:45;1.60;;;1.27;;
12141;SDS011;6134;59.284;18.022;2023-07-24T07:14:19;1.67;;;1.50;;
12141;SDS011;6134;59.284;18.022;2023-07-24T07:16:47;1.33;;;1.23;;
12141;SDS011;6134;59.284;18.022;2023-07-24T07:19:16;1.77;;;1.42;;
12141;SDS011;6134;59.284;18.022;2023-07-24T07:21:45;1.40;;;1.30;;
12141;SDS011;6134;59.284;18.022;2023-07-24T07:24:13;1.48;;;1.20;;
12141;SDS011;6134;59.284;18.022;2023-07-24T07:26:42;1.35;;;1.25;;
12141;SDS011;6134;59.284;18.022;2023-07-24T07:29:12;1.83;;;1.50;;
12141;SDS011;6134;59.284;18.022;2023-07-24T07:31:43;1.90;;;1.60;;
12141;SDS011;6134;59.284;18.022;2023-07-24T07:34:11;1.63;;;1.25;;
12141;SDS011;6134;59.284;18.022;2023-07-24T07:36:40;1.63;;;1.42;;
12141;SDS011;6134;59.284;18.022;2023-07-24T07:39:09;4.50;;;1.70;;
12141;SDS011;6134;59.284;18.022;2023-07-24T07:41:38;1.90;;;1.38;;
12141;SDS011;6134;59.284;18.022;2023-07-24T07:44:06;1.40;;;1.20;;
12141;SDS011;6134;59.284;18.022;2023-07-24T07:46:35;2.13;;;1.60;;
12141;SDS011;6134;59.284;18.022;2023-07-24T07:49:05;1.98;;;1.42;;
12141;SDS011;6134;59.284;18.022;2023-07-24T07:51:34;3.78;;;1.30;;
12141;SDS011;6134;59.284;18.022;2023-07-24T07:54:03;1.30;;;1.20;;
12141;SDS011;6134;59.284;18.022;2023-07-24T07:56:32;2.83;;;1.50;;
12141;SDS011;6134;59.284;18.022;2023-07-24T07:59:00;1.73;;;1.30;;
12141;SDS011;6134;59.284;18.022;2023-07-24T08:01:29;2.22;;;1.70;;
12141;SDS011;6134;59.284;18.022;2023-07-24T08:03:59;1.40;;;1.30;;
12141;SDS011;6134;59.284;18.022;2023-07-24T08:06:29;3.33;;;1.40;;
12141;SDS011;6134;59.284;18.022;2023-07-24T08:08:58;1.70;;;1.15;;
12141;SDS011;6134;59.284;18.022;2023-07-24T08:11:27;1.60;;;1.40;;
12141;SDS011;6134;59.284;18.022;2023-07-24T08:13:55;1.70;;;1.35;;
12141;SDS011;6134;59.284;18.022;2023-07-24T08:16:24;1.65;;;1.10;;
12141;SDS011;6134;59.284;18.022;2023-07-24T08:18:54;2.70;;;1.45;;
12141;SDS011;6134;59.284;18.022;2023-07-24T08:21:24;1.20;;;1.10;;
12141;SDS011;6134;59.284;18.022;2023-07-24T08:23:54;1.55;;;1.30;;
12141;SDS011;6134;59.284;18.022;2023-07-24T08:26:23;1.75;;;1.17;;
12141;SDS011;6134;59.284;18.022;2023-07-24T08:28:53;1.60;;;1.15;;
12141;SDS011;6134;59.284;18.022;2023-07-24T08:31:21;1.65;;;1.20;;
12141;SDS011;6134;59.284;18.022;2023-07-24T08:33:50;3.03;;;1.33;;
12141;SDS011;6134;59.284;18.022;2023-07-24T08:36:20;1.30;;;1.20;;
12141;SDS011;6134;59.284;18.022;2023-07-24T08:38:49;1.80;;;1.20;;
12141;SDS011;6134;59.284;18.022;2023-07-24T08:41:19;2.30;;;1.13;;
12141;SDS011;6134;59.284;18.022;2023-07-24T08:43:48;1.65;;;1.35;;
12141;SDS011;6134;59.284;18.022;2023-07-24T08:46:18;1.23;;;1.13;;
12141;SDS011;6134;59.284;18.022;2023-07-24T08:48:47;1.92;;;1.17;;
12141;SDS011;6134;59.284;18.022;2023-07-24T08:51:16;1.45;;;1.30;;
12141;SDS011;6134;59.284;18.022;2023-07-24T08:53:47;1.80;;;1.27;;
12141;SDS011;6134;59.284;18.022;2023-07-24T08:56:15;1.10;;;1.00;;
12141;SDS011;6134;59.284;18.022;2023-07-24T08:58:45;1.60;;;1.40;;
12141;SDS011;6134;59.284;18.022;2023-07-24T09:01:14;1.48;;;1.10;;
12141;SDS011;6134;59.284;18.022;2023-07-24T09:03:43;1.10;;;1.00;;
12141;SDS011;6134;59.284;18.022;2023-07-24T09:06:12;1.63;;;1.27;;
12141;SDS011;6134;59.284;18.022;2023-07-24T09:08:42;1.48;;;1.17;;
12141;SDS011;6134;59.284;18.022;2023-07-24T09:11:12;2.55;;;1.55;;
12141;SDS011;6134;59.284;18.022;2023-07-24T09:13:42;1.77;;;1.20;;
12141;SDS011;6134;59.284;18.022;2023-07-24T09:16:21;1.80;;;1.38;;
12141;SDS011;6134;59.284;18.022;2023-07-24T09:18:51;2.03;;;1.35;;
12141;SDS011;6134;59.284;18.022;2023-07-24T09:21:27;1.55;;;1.20;;
12141;SDS011;6134;59.284;18.022;2023-07-24T09:23:56;1.55;;;1.45;;
12141;SDS011;6134;59.284;18.022;2023-07-24T09:26:25;1.65;;;1.38;;
12141;SDS011;6134;59.284;18.022;2023-07-24T09:28:55;1.50;;;1.33;;
12141;SDS011;6134;59.284;18.022;2023-07-24T09:31:34;2.53;;;1.33;;
12141;SDS011;6134;59.284;18.022;2023-07-24T09:34:03;2.13;;;1.20;;
12141;SDS011;6134;59.284;18.022;2023-07-24T09:36:36;3.90;;;1.48;;
12141;SDS011;6134;59.284;18.022;2023-07-24T09:39:05;1.60;;;1.30;;
12141;SDS011;6134;59.284;18.022;2023-07-24T09:41:37;1.73;;;1.40;;
12141;SDS011;6134;59.284;18.022;2023-07-24T09:44:07;1.55;;;1.15;;
12141;SDS011;6134;59.284;18.022;2023-07-24T09:46:37;1.70;;;1.15;;
12141;SDS011;6134;59.284;18.022;2023-07-24T09:49:08;1.30;;;1.20;;
12141;SDS011;6134;59.284;18.022;2023-07-24T09:51:38;1.88;;;1.25;;
12141;SDS011;6134;59.284;18.022;2023-07-24T09:54:09;1.33;;;1.17;;
12141;SDS011;6134;59.284;18.022;2023-07-24T09:56:41;1.85;;;1.40;;
12141;SDS011;6134;59.284;18.022;2023-07-24T09:59:23;2.50;;;1.50;;
12141;SDS011;6134;59.284;18.022;2023-07-24T10:01:54;2.10;;;1.40;;
12141;SDS011;6134;59.284;18.022;2023-07-24T10:04:23;1.60;;;1.45;;
12141;SDS011;6134;59.284;18.022;2023-07-24T10:06:52;1.27;;;1.15;;
12141;SDS011;6134;59.284;18.022;2023-07-24T10:09:21;1.38;;;1.27;;
12141;SDS011;6134;59.284;18.022;2023-07-24T10:11:54;1.15;;;1.05;;
12141;SDS011;6134;59.284;18.022;2023-07-24T10:14:23;1.42;;;1.30;;
12141;SDS011;6134;59.284;18.022;2023-07-24T10:16:55;1.35;;;1.25;;
12141;SDS011;6134;59.284;18.022;2023-07-24T10:19:23;1.55;;;1.10;;
12141;SDS011;6134;59.284;18.022;2023-07-24T10:21:52;2.05;;;1.33;;
12141;SDS011;6134;59.284;18.022;2023-07-24T10:24:28;1.52;;;1.25;;
12141;SDS011;6134;59.284;18.022;2023-07-24T10:27:07;1.60;;;1.50;;
12141;SDS011;6134;59.284;18.022;2023-07-24T10:29:35;1.55;;;1.40;;
12141;SDS011;6134;59.284;18.022;2023-07-24T10:32:17;1.42;;;1.20;;
12141;SDS011;6134;59.284;18.022;2023-07-24T10:34:55;1.60;;;1.50;;
12141;SDS011;6134;59.284;18.022;2023-07-24T10:37:31;3.80;;;1.75;;
12141;SDS011;6134;59.284;18.022;2023-07-24T10:40:00;1.40;;;1.20;;
12141;SDS011;6134;59.284;18.022;2023-07-24T10:42:29;2.35;;;1.35;;
12141;SDS011;6134;59.284;18.022;2023-07-24T10:45:04;1.50;;;1.40;;
12141;SDS011;6134;59.284;18.022;2023-07-24T10:47:34;1.50;;;1.40;;
12141;SDS011;6134;59.284;18.022;2023-07-24T10:50:04;2.88;;;1.55;;
12141;SDS011;6134;59.284;18.022;2023-07-24T10:52:33;3.75;;;1.40;;
12141;SDS011;6134;59.284;18.022;2023-07-24T10:55:02;1.73;;;1.52;;
12141;SDS011;6134;59.284;18.022;2023-07-24T10:57:31;1.75;;;1.20;;
12141;SDS011;6134;59.284;18.022;2023-07-24T10:59:59;1.30;;;1.20;;
12141;SDS011;6134;59.284;18.022;2023-07-24T11:02:29;1.40;;;1.23;;
12141;SDS011;6134;59.284;18.022;2023-07-24T11:05:00;2.55;;;1.30;;
12141;SDS011;6134;59.284;18.022;2023-07-24T11:07:31;1.63;;;1.30;;
12141;SDS011;6134;59.284;18.022;2023-07-24T11:10:00;1.40;;;1.30;;
12141;SDS011;6134;59.284;18.022;2023-07-24T11:12:29;1.63;;;1.20;;
12141;SDS011;6134;59.284;18.022;2023-07-24T11:14:58;1.85;;;1.17;;
12141;SDS011;6134;59.284;18.022;2023-07-24T11:17:35;2.15;;;1.35;;
12141;SDS011;6134;59.284;18.022;2023-07-24T11:20:11;2.75;;;1.30;;
12141;SDS011;6134;59.284;18.022;2023-07-24T11:22:41;2.75;;;1.35;;
12141;SDS011;6134;59.284;18.022;2023-07-24T11:25:10;1.20;;;1.10;;
12141;SDS011;6134;59.284;18.022;2023-07-24T11:27:39;3.05;;;2.20;;
12141;SDS011;6134;59.284;18.022;2023-07-24T11:30:10;2.20;;;1.05;;
12141;SDS011;6134;59.284;18.022;2023-07-24T11:32:40;1.33;;;1.10;;
12141;SDS011;6134;59.284;18.022;2023-07-24T11:35:10;1.35;;;1.10;;
12141;SDS011;6134;59.284;18.022;2023-07-24T11:37:39;2.10;;;0.90;;
12141;SDS011;6134;59.284;18.022;2023-07-24T11:40:08;1.00;;;1.00;;
12141;SDS011;6134;59.284;18.022;2023-07-24T11:42:41;2.08;;;1.13;;
12141;SDS011;6134;59.284;18.022;2023-07-24T11:45:11;1.45;;;1.20;;
12141;SDS011;6134;59.284;18.022;2023-07-24T11:47:43;0.80;;;0.80;;
12141;SDS011;6134;59.284;18.022;2023-07-24T11:50:14;1.05;;;0.90;;
12141;SDS011;6134;59.284;18.022;2023-07-24T11:52:44;1.95;;;1.00;;
12141;SDS011;6134;59.284;18.022;2023-07-24T11:55:13;1.10;;;1.00;;
12141;SDS011;6134;59.284;18.022;2023-07-24T11:57:42;0.80;;;0.80;;
12141;SDS011;6134;59.284;18.022;2023-07-24T12:00:18;1.23;;;1.08;;
12141;SDS011;6134;59.284;18.022;2023-07-24T12:02:47;1.15;;;0.98;;
12141;SDS011;6134;59.284;18.022;2023-07-24T12:05:17;2.42;;;1.00;;
12141;SDS011;6134;59.284;18.022;2023-07-24T12:07:46;1.00;;;0.90;;
12141;SDS011;6134;59.284;18.022;2023-07-24T12:10:24;1.48;;;1.00;;
12141;SDS011;6134;59.284;18.022;2023-07-24T12:12:54;2.15;;;1.00;;
12141;SDS011;6134;59.284;18.022;2023-07-24T12:15:23;1.02;;;0.90;;
12141;SDS011;6134;59.284;18.022;2023-07-24T12:17:53;0.75;;;0.75;;
12141;SDS011;6134;59.284;18.022;2023-07-24T12:20:24;1.17;;;0.80;;
12141;SDS011;6134;59.284;18.022;2023-07-24T12:22:53;0.90;;;0.90;;
12141;SDS011;6134;59.284;18.022;2023-07-24T12:25:22;1.35;;;0.93;;
12141;SDS011;6134;59.284;18.022;2023-07-24T12:27:51;0.93;;;0.82;;
12141;SDS011;6134;59.284;18.022;2023-07-24T12:30:19;2.13;;;0.80;;
12141;SDS011;6134;59.284;18.022;2023-07-24T12:32:48;0.88;;;0.80;;
12141;SDS011;6134;59.284;18.022;2023-07-24T12:35:17;0.98;;;0.88;;
12141;SDS011;6134;59.284;18.022;2023-07-24T12:37:48;0.90;;;0.80;;
12141;SDS011;6134;59.284;18.022;2023-07-24T12:40:17;0.75;;;0.75;;
12141;SDS011;6134;59.284;18.022;2023-07-24T12:42:45;1.65;;;0.88;;
12141;SDS011;6134;59.284;18.022;2023-07-24T12:45:14;1.48;;;0.93;;
12141;SDS011;6134;59.284;18.022;2023-07-24T12:47:43;1.23;;;0.90;;
12141;SDS011;6134;59.284;18.022;2023-07-24T12:50:12;0.80;;;0.80;;
12141;SDS011;6134;59.284;18.022;2023-07-24T12:52:41;1.17;;;0.73;;
12141;SDS011;6134;59.284;18.022;2023-07-24T12:55:11;1.40;;;1.00;;
12141;SDS011;6134;59.284;18.022;2023-07-24T12:57:40;0.80;;;0.80;;
12141;SDS011;6134;59.284;18.022;2023-07-24T13:00:09;1.23;;;1.08;;
12141;SDS011;6134;59.284;18.022;2023-07-24T13:02:38;1.10;;;1.00;;
12141;SDS011;6134;59.284;18.022;2023-07-24T13:05:08;1.08;;;0.98;;
12141;SDS011;6134;59.284;18.022;2023-07-24T13:07:36;2.38;;;0.93;;
12141;SDS011;6134;59.284;18.022;2023-07-24T13:10:06;0.80;;;0.80;;
12141;SDS011;6134;59.284;18.022;2023-07-24T13:12:36;1.50;;;1.00;;
12141;SDS011;6134;59.284;18.022;2023-07-24T13:15:05;1.23;;;1.10;;
12141;SDS011;6134;59.284;18.022;2023-07-24T13:17:34;1.00;;;0.90;;
12141;SDS011;6134;59.284;18.022;2023-07-24T13:20:04;1.77;;;0.82;;
12141;SDS011;6134;59.284;18.022;2023-07-24T13:22:33;0.82;;;0.82;;
12141;SDS011;6134;59.284;18.022;2023-07-24T13:25:02;1.25;;;1.00;;
12141;SDS011;6134;59.284;18.022;2023-07-24T13:27:31;0.80;;;0.80;;
12141;SDS011;6134;59.284;18.022;2023-07-24T13:30:01;1.65;;;0.82;;
12141;SDS011;6134;59.284;18.022;2023-07-24T13:32:30;1.95;;;0.80;;
12141;SDS011;6134;59.284;18.022;2023-07-24T13:34:59;5.38;;;1.60;;
12141;SDS011;6134;59.284;18.022;2023-07-24T13:37:28;1.13;;;1.00;;
12141;SDS011;6134;59.284;18.022;2023-07-24T13:39:57;1.10;;;0.98;;
12141;SDS011;6134;59.284;18.022;2023-07-24T13:42:26;0.80;;;0.80;;
12141;SDS011;6134;59.284;18.022;2023-07-24T13:44:55;0.77;;;0.77;;
12141;SDS011;6134;59.284;18.022;2023-07-24T13:47:25;1.63;;;0.80;;
12141;SDS011;6134;59.284;18.022;2023-07-24T13:49:54;1.15;;;0.90;;
12141;SDS011;6134;59.284;18.022;2023-07-24T13:52:22;0.80;;;0.80;;
12141;SDS011;6134;59.284;18.022;2023-07-24T13:54:51;0.98;;;0.90;;
12141;SDS011;6134;59.284;18.022;2023-07-24T13:57:20;1.83;;;0.90;;
12141;SDS011;6134;59.284;18.022;2023-07-24T13:59:50;1.02;;;0.90;;
12141;SDS011;6134;59.284;18.022;2023-07-24T14:02:18;2.58;;;0.90;;
12141;SDS011;6134;59.284;18.022;2023-07-24T14:04:48;2.58;;;1.00;;
12141;SDS011;6134;59.284;18.022;2023-07-24T14:07:17;1.58;;;1.00;;
12141;SDS011;6134;59.284;18.022;2023-07-24T14:09:46;1.20;;;0.93;;
12141;SDS011;6134;59.284;18.022;2023-07-24T14:12:15;1.10;;;1.00;;
12141;SDS011;6134;59.284;18.022;2023-07-24T14:14:44;0.85;;;0.80;;
12141;SDS011;6134;59.284;18.022;2023-07-24T14:17:12;0.80;;;0.80;;
12141;SDS011;6134;59.284;18.022;2023-07-24T14:19:41;0.80;;;0.80;;
12141;SDS011;6134;59.284;18.022;2023-07-24T14:22:11;0.90;;;0.90;;
12141;SDS011;6134;59.284;18.022;2023-07-24T14:24:40;1.75;;;1.00;;
12141;SDS011;6134;59.284;18.022;2023-07-24T14:27:09;0.85;;;0.68;;
12141;SDS011;6134;59.284;18.022;2023-07-24T14:29:38;1.63;;;0.80;;
12141;SDS011;6134;59.284;18.022;2023-07-24T14:32:07;0.88;;;0.85;;
12141;SDS011;6134;59.284;18.022;2023-07-24T14:34:36;0.80;;;0.80;;
12141;SDS011;6134;59.284;18.022;2023-07-24T14:37:08;1.00;;;0.90;;
12141;SDS011;6134;59.284;18.022;2023-07-24T14:39:39;1.92;;;1.00;;
12141;SDS011;6134;59.284;18.022;2023-07-24T14:42:08;1.92;;;1.10;;
12141;SDS011;6134;59.284;18.022;2023-07-24T14:44:37;1.05;;;0.90;;
12141;SDS011;6134;59.284;18.022;2023-07-24T14:47:06;0.90;;;0.90;;
12141;SDS011;6134;59.284;18.022;2023-07-24T14:49:35;1.08;;;0.90;;
12141;SDS011;6134;59.284;18.022;2023-07-24T14:52:04;1.20;;;0.90;;
12141;SDS011;6134;59.284;18.022;2023-07-24T14:54:33;0.77;;;0.77;;
12141;SDS011;6134;59.284;18.022;2023-07-24T14:57:06;0.77;;;0.70;;
12141;SDS011;6134;59.284;18.022;2023-07-24T14:59:50;0.70;;;0.70;;
12141;SDS011;6134;59.284;18.022;2023-07-24T15:02:19;1.10;;;0.93;;